Airfield :
LOGIN :

Register | Disclaimer

   EN    FR    IT 

 










Legend :    VFR   Marginal VFR   IFR   Intensive IFR   Very Intensive IFR
Visi :
Ceiling :
>= 8 km
>= 3000ft
5 to 8 km
1000 to 3000 ft
1500m to 5 km
500 to 1000 ft
800 to 1500m
200 to 500 ft
< 800m
< 200 ft
Symbols :   Thunderstorms  Fog  Heavy snow  Heavy precipitations  Wind > 20 kt
SIGMETs :     Misc.  Thunderstorms  Icing  Turbulence  Mountain Waves  Volcanic Ashes







- Airport Elevation : 209 ft
- IATA code : CLY
- Download approach charts


LFKC - Calvi

CURRENT METAR :
  • 181200Z AUTO 35008KT 310V010 CAVOK 18/09 Q1015 NOSIG

EXPIRED METARs :
  • 181130Z AUTO 35006KT 290V020 CAVOK 18/08 Q1015 NOSIG
  • 181100Z AUTO 35006KT 310V020 CAVOK 17/09 Q1016 NOSIG
  • 181030Z AUTO VRB03KT CAVOK 17/09 Q1016 NOSIG
  • 181000Z AUTO VRB03KT CAVOK 17/10 Q1016 NOSIG
  • 180930Z AUTO 00000KT CAVOK 16/10 Q1016 BECMG 02010KT

TAF TAF LFKC
Valid from the 18 at 09:00 until the 19 at 09:00 UTC


180800Z 1809/1909 VRB03KT CAVOK
BECMG 1809/1811 02010KT TX18/1813Z TN07/1900Z
ATIS : +33 4 95 65 82 49
No reported NOTAMs for that airfield.



MET'MAP, your aeronautical weather chart ! - Copyright ORBIFLY December 2007 - Disclaimer

ORBIFLY MET'MAP TEAM :

Programming & Development : Alexandra Zaïnal
Concept & Development : Baudouin d'Aumeries
Co-Development & Prog : Marc-Olivier Méhu
Technical & hardware support : Manuel Goepfert

Contact : metmap@orbifly.com




SOURCES & CREDITS :

   NOAA